Time;durP1;ratioP1;P1;durP2;ratioP2;P2;SDS_P1;SDS_P2;PMS_P1;PMS_P2;Temp;Humidity;BMP_temperature;BMP_pressure;BME280_temperature;BME280_humidity;BME280_pressure;Samples;Min_cycle;Max_cycle;Signal;HPM_P1;HPM_P2
2022/08/03 00:02:12;;;;;;;2.15;1.90;;;20.10;99.90;;;;;;5014962;28;20250;-58
2022/08/03 00:04:40;;;;;;;3.65;1.92;;;20.00;99.90;;;;;;5014872;28;20211;-57
2022/08/03 00:07:06;;;;;;;4.25;1.85;;;20.00;99.90;;;;;;5014544;28;20206;-57
2022/08/03 00:09:33;;;;;;;4.43;2.10;;;19.90;99.90;;;;;;5014698;28;20747;-57
2022/08/03 00:12:00;;;;;;;2.20;2.00;;;19.90;99.90;;;;;;5014467;28;20218;-57
2022/08/03 00:14:26;;;;;;;2.35;1.90;;;19.90;99.90;;;;;;5014551;28;20286;-58
2022/08/03 00:16:53;;;;;;;2.88;2.00;;;19.90;99.90;;;;;;5014613;28;20217;-57
2022/08/03 00:19:20;;;;;;;3.88;2.10;;;19.90;99.90;;;;;;5014404;28;20223;-57
2022/08/03 00:21:48;;;;;;;2.80;1.80;;;19.90;99.90;;;;;;5014272;28;20215;-58
2022/08/03 00:24:15;;;;;;;2.13;1.80;;;19.90;99.90;;;;;;5014337;28;20257;-57
2022/08/03 00:26:42;;;;;;;2.47;2.03;;;19.90;99.90;;;;;;5014300;28;20207;-58
2022/08/03 00:29:08;;;;;;;2.00;1.80;;;19.80;99.90;;;;;;5013961;28;20741;-56
2022/08/03 00:31:35;;;;;;;2.83;2.13;;;19.80;99.90;;;;;;5014388;28;20211;-58
2022/08/03 00:34:02;;;;;;;2.10;1.80;;;19.80;99.90;;;;;;5014189;28;20238;-55
2022/08/03 00:36:29;;;;;;;3.42;2.10;;;19.90;99.90;;;;;;5014179;28;20210;-58
2022/08/03 00:38:57;;;;;;;4.53;2.00;;;19.90;99.90;;;;;;5013820;28;20223;-57
2022/08/03 00:41:24;;;;;;;6.05;2.00;;;19.90;99.90;;;;;;5013894;28;20679;-58
2022/08/03 00:43:50;;;;;;;3.90;2.25;;;19.90;99.90;;;;;;5013879;28;20235;-63
2022/08/03 00:46:17;;;;;;;2.58;2.00;;;19.90;99.90;;;;;;5014220;28;20222;-58
2022/08/03 00:48:44;;;;;;;3.17;2.20;;;19.90;99.90;;;;;;5014154;28;20210;-58
2022/08/03 00:51:11;;;;;;;3.08;2.00;;;19.90;99.90;;;;;;5014217;28;20211;-58
2022/08/03 00:53:38;;;;;;;3.35;2.10;;;19.90;99.90;;;;;;5013943;28;20258;-58
2022/08/03 00:56:06;;;;;;;3.72;2.13;;;19.90;99.90;;;;;;5013973;28;20203;-58
2022/08/03 00:58:33;;;;;;;2.50;2.20;;;19.90;99.90;;;;;;5013413;28;20223;-56
2022/08/03 01:01:00;;;;;;;3.15;2.00;;;19.80;99.90;;;;;;5014077;28;20207;-55
2022/08/03 01:03:27;;;;;;;2.63;2.05;;;19.90;99.90;;;;;;5013410;28;20649;-59
2022/08/03 01:06:00;;;;;;;2.38;1.98;;;19.80;99.90;;;;;;5013346;28;20202;-57
2022/08/03 01:08:36;;;;;;;2.55;2.20;;;19.80;99.90;;;;;;5013174;28;20203;-56
2022/08/03 01:11:11;;;;;;;4.55;2.10;;;19.80;99.90;;;;;;5013752;28;20202;-56
2022/08/03 01:13:48;;;;;;;2.30;2.10;;;19.80;99.90;;;;;;5013756;28;20230;-56
2022/08/03 01:16:22;;;;;;;2.42;1.80;;;19.70;99.90;;;;;;5013567;28;20682;-56
2022/08/03 01:18:55;;;;;;;2.88;2.10;;;19.80;99.90;;;;;;5013085;28;20281;-57
2022/08/03 01:21:28;;;;;;;4.15;2.20;;;19.70;99.90;;;;;;5013313;28;20695;-57
2022/08/03 01:24:14;;;;;;;2.53;2.08;;;19.70;99.90;;;;;;5013238;28;20250;-57
2022/08/03 01:26:58;;;;;;;2.92;2.22;;;19.70;99.90;;;;;;5013392;28;20211;-56
2022/08/03 01:29:51;;;;;;;3.80;2.30;;;19.60;99.90;;;;;;5012932;28;20276;-58
2022/08/03 01:32:21;;;;;;;4.00;2.03;;;19.50;99.90;;;;;;5013235;28;20230;-58
2022/08/03 01:34:55;;;;;;;2.67;2.13;;;19.50;99.90;;;;;;5013071;28;20214;-57
2022/08/03 01:37:26;;;;;;;2.90;2.13;;;19.40;99.90;;;;;;5012713;28;20207;-56
2022/08/03 01:39:57;;;;;;;2.35;2.00;;;19.30;99.90;;;;;;5013008;28;20207;-57
2022/08/03 01:42:25;;;;;;;2.47;2.22;;;19.30;99.90;;;;;;5013114;28;20242;-58
2022/08/03 01:44:56;;;;;;;3.38;2.10;;;19.10;99.90;;;;;;5013319;28;20242;-58
2022/08/03 01:47:24;;;;;;;2.88;1.90;;;19.10;99.90;;;;;;5012713;28;20697;-59
2022/08/03 01:49:51;;;;;;;3.28;2.10;;;19.10;99.90;;;;;;5013010;28;20253;-59
2022/08/03 01:52:20;;;;;;;5.53;2.03;;;19.20;99.90;;;;;;5012802;28;20619;-57
2022/08/03 01:54:50;;;;;;;5.93;2.10;;;19.20;99.90;;;;;;5013028;28;20293;-57
2022/08/03 01:57:19;;;;;;;2.67;2.47;;;19.20;99.90;;;;;;5012545;28;20610;-56
2022/08/03 01:59:48;;;;;;;5.78;2.25;;;19.20;99.90;;;;;;5012738;28;20199;-57
2022/08/03 02:02:17;;;;;;;4.18;2.45;;;19.10;99.90;;;;;;5012619;28;20234;-56
2022/08/03 02:04:46;;;;;;;3.95;2.40;;;19.10;99.90;;;;;;5012444;28;20221;-55
2022/08/03 02:07:15;;;;;;;2.28;2.08;;;19.10;99.90;;;;;;5012311;28;20567;-56
2022/08/03 02:09:43;;;;;;;2.45;2.20;;;19.00;99.90;;;;;;5012487;28;20582;-57
2022/08/03 02:12:11;;;;;;;6.15;1.90;;;18.90;99.90;;;;;;5012496;28;20227;-57
2022/08/03 02:14:40;;;;;;;2.75;2.20;;;19.00;99.90;;;;;;5012449;28;20211;-55
2022/08/03 02:17:07;;;;;;;2.53;2.33;;;19.00;99.90;;;;;;5011429;28;20206;-58
2022/08/03 02:19:37;;;;;;;3.95;2.80;;;19.00;99.90;;;;;;5012448;28;20652;-56
2022/08/03 02:22:08;;;;;;;3.67;2.60;;;19.00;99.90;;;;;;5012445;28;20289;-56
2022/08/03 02:24:34;;;;;;;8.38;2.33;;;18.90;99.90;;;;;;5012776;28;20211;-56
2022/08/03 02:27:05;;;;;;;2.42;2.22;;;18.90;99.90;;;;;;5012205;28;20202;-57
2022/08/03 02:29:34;;;;;;;2.33;2.08;;;18.90;99.90;;;;;;5011922;28;20210;-57
2022/08/03 02:32:03;;;;;;;2.05;1.95;;;19.00;99.90;;;;;;5012420;28;20292;-56
2022/08/03 02:34:33;;;;;;;2.40;2.17;;;19.00;99.90;;;;;;5012245;28;20644;-57
2022/08/03 02:37:03;;;;;;;2.33;2.00;;;18.90;99.90;;;;;;5012265;28;20268;-57
2022/08/03 02:39:32;;;;;;;2.22;2.03;;;18.90;99.90;;;;;;5011909;28;20230;-57
2022/08/03 02:42:02;;;;;;;4.47;2.38;;;18.90;99.90;;;;;;5011873;28;20402;-56
2022/08/03 02:44:31;;;;;;;2.95;2.10;;;18.90;99.90;;;;;;5012019;28;20207;-56
2022/08/03 02:47:03;;;;;;;5.65;2.40;;;19.00;99.90;;;;;;5012168;28;20295;-56
2022/08/03 02:49:31;;;;;;;4.05;1.90;;;19.00;99.90;;;;;;5011818;28;20671;-56
2022/08/03 02:52:01;;;;;;;3.22;2.35;;;19.00;99.90;;;;;;5012092;28;20210;-56
2022/08/03 02:54:29;;;;;;;3.85;2.20;;;19.00;99.90;;;;;;5012014;28;20261;-56
2022/08/03 02:56:56;;;;;;;2.55;2.35;;;19.00;99.90;;;;;;5011902;28;20210;-56
2022/08/03 02:59:24;;;;;;;2.58;2.20;;;19.00;99.90;;;;;;5011815;28;20227;-56
2022/08/03 03:01:53;;;;;;;4.60;2.30;;;19.00;99.90;;;;;;5011941;28;20265;-56
2022/08/03 03:04:20;;;;;;;2.33;2.13;;;19.10;99.90;;;;;;5011998;28;20281;-56
2022/08/03 03:06:48;;;;;;;3.17;2.40;;;19.10;99.90;;;;;;5011896;28;20211;-56
2022/08/03 03:09:18;;;;;;;5.40;2.47;;;19.00;99.90;;;;;;5011503;28;20207;-56
2022/08/03 03:11:46;;;;;;;2.40;2.20;;;19.00;99.90;;;;;;5011940;28;20238;-57
2022/08/03 03:14:14;;;;;;;3.58;2.10;;;19.00;99.90;;;;;;5011952;28;20210;-56
2022/08/03 03:16:42;;;;;;;2.53;2.33;;;19.00;99.90;;;;;;5011848;28;20634;-56
2022/08/03 03:19:12;;;;;;;2.15;1.95;;;19.00;99.90;;;;;;5011550;28;20273;-56
2022/08/03 03:21:40;;;;;;;2.88;2.10;;;19.00;99.90;;;;;;5011998;28;20713;-57
2022/08/03 03:24:09;;;;;;;2.45;2.25;;;18.80;99.90;;;;;;5012010;28;20852;-56
2022/08/03 03:26:38;;;;;;;5.78;2.30;;;18.90;99.90;;;;;;5012173;28;20214;-56
2022/08/03 03:29:05;;;;;;;2.90;2.20;;;18.80;99.90;;;;;;5014527;28;20246;-56
2022/08/03 03:31:32;;;;;;;2.70;2.40;;;18.80;99.90;;;;;;5016630;28;20207;-57
2022/08/03 03:33:59;;;;;;;3.92;2.50;;;18.80;99.90;;;;;;5016191;28;20231;-57
2022/08/03 03:36:26;;;;;;;4.15;2.47;;;18.90;99.90;;;;;;5015570;28;20207;-56
2022/08/03 03:38:52;;;;;;;2.53;2.03;;;18.90;99.90;;;;;;5015336;28;20230;-56
2022/08/03 03:41:19;;;;;;;4.18;2.35;;;18.80;99.90;;;;;;5015430;28;20310;-57
2022/08/03 03:43:49;;;;;;;4.57;2.58;;;18.80;99.90;;;;;;5079493;23;20228;-59
2022/08/03 03:46:16;;;;;;;4.45;2.53;;;18.80;99.90;;;;;;5071082;28;20204;-58
2022/08/03 03:48:44;;;;;;;2.92;2.50;;;18.70;99.90;;;;;;5075501;28;20197;-58
2022/08/03 03:51:11;;;;;;;3.53;2.20;;;18.70;99.90;;;;;;5076158;28;20228;-58
2022/08/03 03:53:37;;;;;;;2.88;2.50;;;18.70;99.90;;;;;;5076242;28;20229;-60
2022/08/03 03:56:04;;;;;;;4.07;2.30;;;18.70;99.90;;;;;;5076294;28;20609;-59
2022/08/03 03:58:32;;;;;;;2.58;2.38;;;18.70;99.90;;;;;;5075378;28;20220;-59
2022/08/03 04:01:00;;;;;;;2.85;2.28;;;18.80;99.90;;;;;;5075636;28;20212;-59
2022/08/03 04:03:27;;;;;;;3.40;2.33;;;18.70;99.90;;;;;;5075274;28;20224;-59
2022/08/03 04:11:28;;;;;;;3.45;2.25;;;18.70;99.90;;;;;;5075361;28;20199;-58
2022/08/03 04:13:57;;;;;;;3.95;2.10;;;18.80;99.90;;;;;;5075061;28;20227;-58
2022/08/03 04:16:30;;;;;;;4.93;2.47;;;18.80;99.90;;;;;;5075483;28;20641;-59
2022/08/03 04:19:01;;;;;;;2.35;2.15;;;18.80;99.90;;;;;;5075708;28;20274;-59
2022/08/03 04:21:30;;;;;;;4.28;2.85;;;18.80;99.90;;;;;;5076179;28;20296;-59
2022/08/03 04:24:01;;;;;;;6.13;2.75;;;18.80;99.90;;;;;;5075213;28;20221;-59
2022/08/03 04:26:33;;;;;;;3.97;2.70;;;18.80;99.90;;;;;;5075522;28;20212;-59
2022/08/03 04:29:01;;;;;;;3.42;2.28;;;18.90;99.90;;;;;;5075411;28;20552;-59
2022/08/03 04:31:30;;;;;;;3.90;2.60;;;18.90;99.90;;;;;;5075415;28;20672;-59
2022/08/03 04:33:57;;;;;;;2.65;2.17;;;18.90;99.90;;;;;;5075937;28;20293;-59
2022/08/03 04:36:26;;;;;;;2.80;2.60;;;18.90;99.90;;;;;;5075510;28;20205;-59
2022/08/03 04:38:59;;;;;;;3.15;2.65;;;19.00;99.90;;;;;;5074612;28;20244;-59
2022/08/03 04:41:27;;;;;;;2.78;2.50;;;19.00;99.90;;;;;;5074136;28;20608;-60
2022/08/03 04:43:55;;;;;;;2.55;2.35;;;19.00;99.90;;;;;;5074521;28;20239;-59
2022/08/03 04:46:25;;;;;;;2.53;2.30;;;19.10;99.90;;;;;;5074874;28;20205;-59
2022/08/03 04:48:54;;;;;;;3.55;2.65;;;19.10;99.90;;;;;;5074805;28;20205;-59
2022/08/03 04:51:21;;;;;;;2.72;2.40;;;19.20;99.90;;;;;;5074782;28;20219;-59
2022/08/03 04:53:48;;;;;;;2.67;2.47;;;19.30;99.90;;;;;;5074928;28;20224;-59
2022/08/03 04:56:15;;;;;;;3.50;2.50;;;19.40;99.90;;;;;;5075470;28;20205;-59
2022/08/03 04:58:41;;;;;;;2.58;2.38;;;19.50;99.90;;;;;;5074718;28;20225;-59
2022/08/03 05:01:08;;;;;;;4.18;2.63;;;19.60;99.90;;;;;;5075440;28;20208;-59
2022/08/03 05:03:35;;;;;;;3.50;2.22;;;19.60;99.90;;;;;;5075328;28;20233;-60
2022/08/03 05:06:03;;;;;;;2.97;2.67;;;19.80;99.90;;;;;;5076432;28;20200;-59
2022/08/03 05:08:30;;;;;;;2.90;2.50;;;19.80;99.90;;;;;;5074493;28;20282;-59
2022/08/03 05:10:57;;;;;;;4.93;2.58;;;19.90;99.90;;;;;;5074099;28;20212;-59
2022/08/03 05:13:23;;;;;;;4.03;2.50;;;20.00;99.90;;;;;;5073704;28;20224;-60
2022/08/03 05:15:50;;;;;;;2.97;2.50;;;20.10;99.90;;;;;;5073692;28;20391;-59
2022/08/03 05:18:17;;;;;;;3.90;2.75;;;20.20;99.90;;;;;;5073098;28;20204;-59
2022/08/03 05:20:43;;;;;;;3.40;2.72;;;20.20;99.90;;;;;;5073222;28;20235;-59
2022/08/03 05:23:11;;;;;;;2.97;2.60;;;20.30;99.90;;;;;;5073320;28;20714;-59
2022/08/03 05:25:38;;;;;;;2.75;2.50;;;20.40;99.90;;;;;;5073263;28;20219;-59
2022/08/03 05:28:05;;;;;;;4.30;2.70;;;20.60;99.90;;;;;;5073230;28;20258;-59
2022/08/03 05:30:32;;;;;;;2.80;2.42;;;20.70;99.90;;;;;;5073630;28;20205;-59
2022/08/03 05:32:59;;;;;;;6.05;2.75;;;20.80;99.90;;;;;;5073058;28;20228;-59
2022/08/03 05:35:27;;;;;;;2.97;2.42;;;20.90;99.90;;;;;;5073379;28;20205;-59
2022/08/03 05:37:54;;;;;;;3.97;2.50;;;21.10;99.90;;;;;;5073069;28;20212;-59
2022/08/03 05:40:22;;;;;;;2.97;2.42;;;21.30;99.90;;;;;;5073138;28;20625;-59
2022/08/03 05:42:49;;;;;;;2.95;2.47;;;21.40;99.90;;;;;;5072967;28;20605;-59
2022/08/03 05:45:17;;;;;;;3.28;2.70;;;21.60;99.90;;;;;;5072998;28;20731;-59
2022/08/03 05:47:43;;;;;;;4.47;2.40;;;22.00;99.90;;;;;;5073528;28;20731;-59
2022/08/03 05:50:11;;;;;;;4.20;2.38;;;23.60;99.90;;;;;;5073324;28;20209;-60
2022/08/03 05:52:38;;;;;;;2.42;1.80;;;25.90;99.90;;;;;;5072294;28;20252;-60
2022/08/03 05:55:06;;;;;;;2.10;1.90;;;28.20;99.90;;;;;;5073225;28;20297;-60
2022/08/03 05:57:35;;;;;;;2.80;2.20;;;30.30;94.50;;;;;;5073324;28;20208;-60
2022/08/03 06:00:04;;;;;;;3.08;2.20;;;32.00;87.80;;;;;;5073295;28;20233;-60
2022/08/03 06:02:30;;;;;;;3.03;1.92;;;33.50;80.90;;;;;;5073834;28;20229;-60
2022/08/03 06:04:57;;;;;;;3.50;2.17;;;34.80;74.20;;;;;;5073731;28;20243;-60
2022/08/03 06:07:24;;;;;;;2.72;1.90;;;35.80;67.40;;;;;;5073929;28;20208;-60
2022/08/03 06:09:50;;;;;;;5.00;2.20;;;36.70;62.90;;;;;;5073589;28;20208;-60
2022/08/03 06:12:17;;;;;;;2.75;1.75;;;37.60;60.00;;;;;;5073234;28;20229;-61
2022/08/03 06:14:46;;;;;;;2.83;2.00;;;38.50;57.50;;;;;;5073146;28;20209;-61
2022/08/03 06:17:13;;;;;;;4.53;1.85;;;39.20;54.80;;;;;;5073901;28;20205;-61
2022/08/03 06:19:40;;;;;;;3.90;1.90;;;39.80;52.40;;;;;;5073163;28;20719;-60
2022/08/03 06:22:07;;;;;;;3.20;1.60;;;40.30;51.50;;;;;;5073681;28;20800;-60
2022/08/03 06:24:33;;;;;;;3.45;1.70;;;40.80;49.90;;;;;;5073162;28;20205;-60
2022/08/03 06:27:00;;;;;;;3.42;1.80;;;41.00;49.10;;;;;;5073085;28;20209;-60
2022/08/03 06:29:27;;;;;;;3.30;1.73;;;41.30;48.20;;;;;;5073230;28;20208;-60
2022/08/03 06:31:55;;;;;;;2.38;1.52;;;41.70;47.90;;;;;;5073356;28;20201;-60
2022/08/03 06:34:22;;;;;;;2.72;1.50;;;41.90;47.00;;;;;;5073330;28;20225;-60
2022/08/03 06:36:49;;;;;;;3.50;1.73;;;42.20;46.50;;;;;;5073260;28;20227;-60
2022/08/03 06:39:17;;;;;;;4.43;1.70;;;42.60;45.40;;;;;;5072652;28;20221;-60
2022/08/03 06:41:44;;;;;;;2.47;1.55;;;41.90;46.10;;;;;;5073078;28;20261;-64
2022/08/03 06:44:11;;;;;;;2.70;2.42;;;41.60;46.50;;;;;;5073027;28;20236;-60
2022/08/03 06:46:37;;;;;;;3.28;1.50;;;42.00;46.70;;;;;;5072808;28;20204;-60
2022/08/03 06:49:06;;;;;;;3.45;1.73;;;42.60;45.70;;;;;;5072760;28;20204;-60
2022/08/03 06:51:33;;;;;;;2.85;1.70;;;43.50;44.70;;;;;;5073025;28;20570;-61
2022/08/03 06:54:00;;;;;;;2.67;1.88;;;44.20;43.20;;;;;;5072619;28;20313;-61
2022/08/03 06:56:26;;;;;;;5.65;2.10;;;43.70;43.30;;;;;;5072549;28;20204;-60
2022/08/03 06:58:53;;;;;;;7.22;2.28;;;43.00;44.20;;;;;;5072632;28;20212;-60
2022/08/03 07:01:20;;;;;;;3.72;1.73;;;42.40;45.10;;;;;;5072930;28;20227;-60
2022/08/03 07:03:47;;;;;;;4.93;1.63;;;42.90;44.40;;;;;;5075041;28;20232;-60
2022/08/03 07:06:15;;;;;;;4.53;1.80;;;43.40;43.90;;;;;;5076929;28;20227;-61
2022/08/03 07:08:42;;;;;;;2.67;1.60;;;44.30;42.60;;;;;;5076523;28;20557;-60
2022/08/03 07:11:08;;;;;;;7.90;5.72;;;45.20;41.60;;;;;;5077281;28;20310;-61
2022/08/03 07:13:35;;;;;;;2.85;1.70;;;46.00;40.90;;;;;;5076843;28;20254;-61
2022/08/03 07:16:02;;;;;;;3.33;1.80;;;46.50;39.80;;;;;;5076539;28;20250;-61
2022/08/03 07:18:29;;;;;;;4.30;2.00;;;46.40;39.70;;;;;;5076366;28;20231;-60
2022/08/03 07:20:55;;;;;;;1.52;1.40;;;45.40;40.40;;;;;;5076322;28;20255;-60
2022/08/03 07:23:24;;;;;;;3.40;1.60;;;44.90;41.20;;;;;;5076293;28;20228;-61
2022/08/03 07:25:50;;;;;;;3.85;1.67;;;45.40;40.50;;;;;;5076320;28;20295;-60
2022/08/03 07:28:17;;;;;;;3.10;1.55;;;45.80;39.80;;;;;;5076348;28;20211;-61
2022/08/03 07:30:44;;;;;;;2.33;1.40;;;46.00;39.30;;;;;;5076720;28;20209;-61
2022/08/03 07:33:11;;;;;;;1.65;1.35;;;46.10;39.20;;;;;;5076344;28;20232;-60
2022/08/03 07:35:38;;;;;;;3.33;1.48;;;46.70;38.50;;;;;;5076159;28;20204;-61
2022/08/03 07:38:04;;;;;;;2.80;1.05;;;47.40;37.70;;;;;;5075766;28;20690;-59
2022/08/03 07:40:32;;;;;;;2.88;1.17;;;47.80;37.00;;;;;;5075715;28;20227;-59
2022/08/03 07:43:01;;;;;;;1.70;1.50;;;48.20;36.50;;;;;;5076259;28;20312;-63
2022/08/03 07:45:27;;;;;;;3.13;1.23;;;48.20;36.70;;;;;;5075316;28;20204;-58
2022/08/03 07:47:54;;;;;;;1.80;1.50;;;48.20;36.60;;;;;;5074905;28;20596;-58
2022/08/03 07:50:21;;;;;;;4.40;1.58;;;47.70;36.70;;;;;;5075206;28;20217;-58
2022/08/03 07:52:48;;;;;;;1.67;1.33;;;47.20;37.40;;;;;;5075047;28;20232;-58
2022/08/03 07:55:15;;;;;;;1.48;1.15;;;47.20;37.10;;;;;;5075425;28;20204;-58
2022/08/03 07:57:43;;;;;;;1.65;1.00;;;47.60;37.10;;;;;;5074833;28;20664;-58
2022/08/03 08:00:15;;;;;;;1.88;0.95;;;47.40;36.50;;;;;;5074936;28;20220;-59
2022/08/03 08:02:43;;;;;;;9.37;1.50;;;46.90;37.00;;;;;;5051542;28;20445;-65
2022/08/03 08:05:11;;;;;;;2.28;1.13;;;46.70;37.30;;;;;;5036236;28;20210;-62
2022/08/03 08:07:38;;;;;;;2.67;1.20;;;47.00;37.10;;;;;;5061237;28;20203;-62
2022/08/03 08:10:06;;;;;;;2.50;1.30;;;47.60;36.30;;;;;;5075283;28;20197;-63
2022/08/03 08:12:33;;;;;;;2.55;1.30;;;47.90;35.90;;;;;;5075672;28;20239;-62
2022/08/03 08:15:01;;;;;;;4.28;1.10;;;48.20;35.50;;;;;;5073011;28;20205;-60
2022/08/03 08:17:28;;;;;;;2.03;1.00;;;48.30;35.30;;;;;;5074041;28;20200;-64
2022/08/03 08:19:55;;;;;;;3.83;1.42;;;48.40;35.00;;;;;;5073396;28;20224;-60
2022/08/03 08:22:21;;;;;;;1.67;0.90;;;48.50;35.20;;;;;;5073793;28;20224;-60
2022/08/03 08:24:48;;;;;;;4.32;1.30;;;48.70;34.60;;;;;;5074122;28;20204;-60
2022/08/03 08:27:15;;;;;;;2.38;0.95;;;48.80;34.00;;;;;;5074325;28;20219;-65
2022/08/03 08:29:42;;;;;;;1.30;1.02;;;48.50;33.40;;;;;;5074174;28;20560;-64
2022/08/03 08:32:12;;;;;;;2.15;1.00;;;47.70;34.20;;;;;;5076185;28;20211;-63
2022/08/03 08:34:38;;;;;;;2.45;0.77;;;46.70;34.90;;;;;;5074486;28;20206;-58
2022/08/03 08:37:05;;;;;;;3.30;1.27;;;46.20;35.00;;;;;;5074778;28;20204;-64
2022/08/03 08:39:32;;;;;;;1.10;0.80;;;45.80;35.30;;;;;;5075147;28;20208;-62
2022/08/03 08:41:58;;;;;;;0.85;0.85;;;44.90;36.10;;;;;;5074387;28;20200;-63
2022/08/03 08:44:25;;;;;;;4.78;0.90;;;43.30;37.40;;;;;;5074613;28;20212;-62
2022/08/03 08:46:55;;;;;;;3.05;1.15;;;41.50;38.90;;;;;;5074535;28;20577;-60
2022/08/03 08:49:26;;;;;;;4.15;0.98;;;39.70;39.60;;;;;;5073549;28;20660;-60
2022/08/03 08:51:56;;;;;;;1.10;1.00;;;38.20;42.00;;;;;;5074158;28;20209;-60
2022/08/03 08:54:23;;;;;;;1.00;0.90;;;37.10;43.60;;;;;;5073678;28;20209;-60
2022/08/03 08:56:51;;;;;;;1.42;1.00;;;36.20;44.60;;;;;;5074189;28;20584;-59
2022/08/03 08:59:19;;;;;;;2.47;1.27;;;35.60;46.00;;;;;;5073088;28;20724;-60
2022/08/03 09:01:46;;;;;;;1.73;1.20;;;35.00;47.50;;;;;;5073579;28;20225;-59
2022/08/03 09:04:13;;;;;;;1.00;0.82;;;34.30;48.60;;;;;;5073728;28;20221;-59
2022/08/03 09:06:41;;;;;;;1.42;0.93;;;33.60;49.00;;;;;;5073536;28;20216;-59
2022/08/03 09:09:08;;;;;;;2.40;1.10;;;33.00;49.90;;;;;;5061642;28;20198;-59
2022/08/03 09:11:35;;;;;;;1.98;1.17;;;32.70;50.80;;;;;;5050668;28;20204;-61
2022/08/03 09:14:02;;;;;;;1.30;1.20;;;32.40;51.40;;;;;;5053230;28;20253;-59
2022/08/03 09:16:29;;;;;;;1.65;1.10;;;32.10;52.10;;;;;;5054096;28;20285;-60
2022/08/03 09:19:11;;;;;;;1.13;1.02;;;32.00;51.60;;;;;;5053250;28;20202;-59
2022/08/03 09:21:37;;;;;;;1.35;1.20;;;31.90;51.30;;;;;;5053775;28;20233;-59
2022/08/03 09:24:06;;;;;;;2.47;1.35;;;31.70;52.70;;;;;;5053299;28;20233;-58
2022/08/03 09:26:35;;;;;;;3.38;1.10;;;31.50;52.30;;;;;;5053513;28;20746;-60
2022/08/03 09:29:04;;;;;;;0.98;0.88;;;31.40;52.80;;;;;;5053342;28;20213;-58
2022/08/03 09:31:33;;;;;;;1.20;1.10;;;31.40;53.20;;;;;;5052686;28;20201;-59
2022/08/03 09:34:02;;;;;;;2.08;1.05;;;31.40;53.40;;;;;;5052971;28;20229;-59
2022/08/03 09:36:40;;;;;;;1.90;1.20;;;31.30;54.30;;;;;;5053280;28;20222;-58
2022/08/03 09:39:10;;;;;;;2.30;1.20;;;31.40;53.80;;;;;;5053521;28;20201;-58
2022/08/03 09:41:38;;;;;;;2.53;1.17;;;31.40;53.20;;;;;;5052579;28;20645;-60
2022/08/03 09:44:05;;;;;;;2.03;1.20;;;31.50;53.90;;;;;;5053705;28;20240;-59
2022/08/03 09:46:32;;;;;;;1.80;1.30;;;31.60;54.20;;;;;;5052687;28;20448;-64
2022/08/03 09:49:10;;;;;;;1.50;1.33;;;31.60;53.50;;;;;;5053016;28;20201;-61
2022/08/03 09:51:37;;;;;;;2.60;1.20;;;31.60;53.70;;;;;;5050832;28;20301;-58
2022/08/03 09:54:04;;;;;;;1.92;1.20;;;31.60;53.80;;;;;;5052539;28;20249;-59
2022/08/03 09:56:40;;;;;;;1.55;1.23;;;31.60;54.10;;;;;;5052527;28;20217;-62
2022/08/03 09:59:06;;;;;;;2.95;1.50;;;31.70;53.60;;;;;;5051993;28;20201;-60
2022/08/03 10:01:36;;;;;;;1.52;1.30;;;31.80;53.60;;;;;;5052480;28;20225;-59
2022/08/03 10:04:02;;;;;;;2.33;1.13;;;31.80;54.00;;;;;;5053146;28;20226;-65
2022/08/03 10:06:29;;;;;;;2.70;1.98;;;31.80;54.00;;;;;;5052944;28;20206;-60
2022/08/03 10:09:06;;;;;;;1.85;1.30;;;32.00;53.60;;;;;;5052120;28;20208;-59
2022/08/03 10:11:34;;;;;;;1.55;1.40;;;32.00;53.20;;;;;;5052834;28;20209;-60
2022/08/03 10:14:05;;;;;;;1.20;1.10;;;32.10;53.70;;;;;;5052362;28;20225;-61
2022/08/03 10:16:35;;;;;;;2.20;1.30;;;32.10;53.80;;;;;;5051689;28;20213;-58
2022/08/03 10:19:02;;;;;;;2.15;1.60;;;32.10;53.90;;;;;;5051018;28;20205;-59
2022/08/03 10:21:33;;;;;;;2.60;1.65;;;32.10;53.70;;;;;;5051475;28;20225;-58
2022/08/03 10:24:03;;;;;;;3.72;1.30;;;32.20;53.40;;;;;;5052452;28;20253;-61
2022/08/03 10:26:32;;;;;;;1.38;1.20;;;32.40;53.20;;;;;;5052681;28;20224;-61
2022/08/03 10:29:02;;;;;;;1.45;1.25;;;32.70;52.90;;;;;;5052292;28;20202;-63
2022/08/03 10:31:35;;;;;;;2.65;1.30;;;32.90;52.50;;;;;;5052977;28;20627;-62
2022/08/03 10:34:06;;;;;;;3.15;1.33;;;33.10;51.90;;;;;;5052394;28;20225;-61
2022/08/03 10:36:35;;;;;;;5.45;1.20;;;33.30;52.00;;;;;;5053174;28;20233;-61
2022/08/03 10:39:03;;;;;;;1.30;1.20;;;33.20;51.90;;;;;;5052800;28;20696;-61
2022/08/03 10:41:33;;;;;;;1.38;1.27;;;33.10;52.30;;;;;;5051642;28;20248;-61
2022/08/03 10:44:03;;;;;;;1.20;1.10;;;33.10;52.10;;;;;;5050868;28;20634;-60
2022/08/03 10:46:35;;;;;;;3.42;1.35;;;33.10;52.90;;;;;;5054957;28;20575;-60
2022/08/03 10:49:02;;;;;;;2.65;1.27;;;33.10;51.90;;;;;;5071472;28;20209;-60
2022/08/03 10:51:30;;;;;;;1.23;1.13;;;33.10;51.90;;;;;;5071378;28;20219;-60
2022/08/03 10:53:58;;;;;;;1.58;1.38;;;33.10;51.90;;;;;;5071378;28;20278;-60
2022/08/03 11:00:01;;;;;;;1.60;1.40;;;33.50;51.60;;;;;;5071280;28;20625;-62
2022/08/03 11:03:05;;;;;;;2.03;1.30;;;33.60;51.60;;;;;;5009920;28;20632;-62
2022/08/03 11:05:33;;;;;;;4.82;1.40;;;33.80;51.40;;;;;;5009666;28;20213;-58
2022/08/03 11:08:29;;;;;;;1.35;1.10;;;34.00;50.80;;;;;;5052858;28;20201;-57
2022/08/03 11:10:59;;;;;;;2.35;1.40;;;34.20;50.70;;;;;;5070835;28;20617;-57
2022/08/03 11:13:30;;;;;;;1.35;1.08;;;34.30;50.40;;;;;;5070791;28;20232;-57
2022/08/03 11:15:59;;;;;;;3.33;1.30;;;34.50;50.20;;;;;;5070904;28;20262;-57
2022/08/03 11:18:28;;;;;;;1.48;1.35;;;34.60;49.80;;;;;;5070621;28;20202;-56
2022/08/03 11:20:56;;;;;;;2.35;1.67;;;34.70;49.50;;;;;;5071025;28;20590;-57
2022/08/03 11:23:41;;;;;;;1.45;1.30;;;34.70;49.10;;;;;;5070928;28;20588;-58
2022/08/03 11:26:13;;;;;;;3.53;1.40;;;34.70;49.10;;;;;;5072169;28;20223;-62
2022/08/03 11:28:41;;;;;;;8.50;1.55;;;34.70;49.10;;;;;;5071708;28;20205;-62
2022/08/03 11:31:48;;;;;;;3.58;1.40;;;34.60;48.80;;;;;;5072757;28;20205;-60
2022/08/03 11:34:16;;;;;;;2.10;1.40;;;34.50;49.20;;;;;;5072324;28;20236;-62
2022/08/03 11:37:18;;;;;;;2.75;1.33;;;34.40;49.10;;;;;;5072905;28;20200;-62
2022/08/03 11:39:47;;;;;;;2.38;1.45;;;34.50;49.10;;;;;;5074397;28;20201;-61
2022/08/03 11:42:43;;;;;;;3.47;1.50;;;34.70;49.20;;;;;;5074646;28;20244;-67
2022/08/03 11:45:10;;;;;;;1.92;1.40;;;34.80;49.20;;;;;;5070704;28;20665;-60
2022/08/03 11:47:40;;;;;;;5.95;1.50;;;34.90;48.70;;;;;;5070087;28;20585;-59
2022/08/03 11:50:09;;;;;;;1.33;1.23;;;35.00;49.10;;;;;;5074750;28;20746;-59
2022/08/03 11:52:39;;;;;;;6.63;1.52;;;35.00;48.40;;;;;;5076395;28;20229;-58
2022/08/03 11:55:10;;;;;;;3.15;1.40;;;34.90;48.60;;;;;;5074636;28;20563;-59
2022/08/03 11:57:37;;;;;;;2.38;1.55;;;34.80;48.70;;;;;;5076259;28;20201;-60
2022/08/03 12:00:23;;;;;;;2.47;1.42;;;34.60;49.00;;;;;;5074355;28;20209;-57
2022/08/03 12:03:02;;;;;;;3.08;1.35;;;34.60;49.00;;;;;;5074140;28;20228;-59
2022/08/03 12:05:42;;;;;;;1.33;1.20;;;34.70;49.00;;;;;;5074896;28;20223;-61
2022/08/03 12:08:10;;;;;;;1.08;1.08;;;34.70;48.90;;;;;;5074805;28;20213;-60
2022/08/03 12:10:38;;;;;;;2.88;1.40;;;34.90;48.70;;;;;;5074730;28;20205;-59
2022/08/03 12:13:07;;;;;;;1.40;1.30;;;35.00;48.10;;;;;;5073787;28;20701;-62
2022/08/03 12:15:36;;;;;;;2.35;1.35;;;35.10;48.20;;;;;;5075176;28;20205;-61
2022/08/03 12:18:12;;;;;;;1.88;1.20;;;35.00;48.30;;;;;;5074992;28;20219;-60
2022/08/03 12:20:40;;;;;;;2.35;1.42;;;35.00;48.00;;;;;;5074613;28;20295;-61
2022/08/03 12:23:08;;;;;;;1.48;1.38;;;35.10;47.80;;;;;;5075870;28;20778;-59
2022/08/03 12:25:36;;;;;;;1.40;1.27;;;35.20;47.60;;;;;;5074455;28;20209;-58
2022/08/03 12:28:09;;;;;;;1.27;1.17;;;35.30;47.30;;;;;;5074765;28;20655;-58
2022/08/03 12:30:36;;;;;;;4.07;2.20;;;35.50;47.40;;;;;;5074406;28;20738;-58
2022/08/03 12:33:12;;;;;;;2.25;1.25;;;35.50;46.20;;;;;;5074522;28;20793;-58
2022/08/03 12:35:41;;;;;;;1.38;1.27;;;35.50;46.50;;;;;;5074694;28;20376;-58
2022/08/03 12:38:07;;;;;;;2.97;1.10;;;35.60;46.80;;;;;;5074320;28;20212;-58
2022/08/03 12:40:34;;;;;;;1.65;1.15;;;35.60;46.80;;;;;;5074930;28;20208;-58
2022/08/03 12:43:01;;;;;;;1.58;1.40;;;35.60;47.10;;;;;;5074414;28;20342;-58
2022/08/03 12:45:30;;;;;;;1.75;1.42;;;35.50;47.30;;;;;;5074252;28;20205;-59
2022/08/03 12:47:59;;;;;;;1.88;1.30;;;35.50;47.00;;;;;;5074221;28;20205;-59
2022/08/03 12:50:27;;;;;;;2.85;1.17;;;35.50;46.20;;;;;;5073994;28;20205;-59
2022/08/03 12:52:56;;;;;;;2.42;1.30;;;35.60;46.00;;;;;;5074117;28;20228;-59
2022/08/03 12:55:24;;;;;;;2.47;2.17;;;35.80;45.80;;;;;;5074302;28;20229;-59
2022/08/03 12:57:50;;;;;;;2.47;1.77;;;36.10;45.90;;;;;;5074158;28;20274;-59
2022/08/03 13:00:19;;;;;;;3.15;1.27;;;36.30;45.70;;;;;;5073497;28;20213;-59
2022/08/03 13:02:45;;;;;;;1.58;1.48;;;36.30;44.90;;;;;;5073850;28;20235;-59
2022/08/03 13:05:13;;;;;;;1.40;1.30;;;36.40;44.60;;;;;;5074035;28;20231;-59
2022/08/03 13:07:41;;;;;;;2.08;1.00;;;36.30;44.50;;;;;;5074096;28;20270;-59